createdAt,value
2018-05-08T00:01:58.076Z,18.80
2018-05-08T00:04:24.265Z,18.70
2018-05-08T00:06:51.217Z,18.70
2018-05-08T00:09:18.147Z,18.70
2018-05-08T00:11:45.072Z,18.60
2018-05-08T00:14:11.246Z,18.60
2018-05-08T00:16:37.410Z,18.60
2018-05-08T00:19:03.603Z,18.60
2018-05-08T00:21:29.788Z,18.50
2018-05-08T00:23:57.446Z,18.40
2018-05-08T00:26:23.631Z,18.40
2018-05-08T00:28:49.816Z,18.40
2018-05-08T00:31:16.770Z,18.30
2018-05-08T00:33:42.957Z,18.20
2018-05-08T00:36:09.140Z,18.30
2018-05-08T00:38:35.316Z,18.30
2018-05-08T00:41:01.484Z,18.20
2018-05-08T00:43:28.416Z,18.20
2018-05-08T00:45:54.596Z,18.10
2018-05-08T00:48:27.765Z,18.10
2018-05-08T00:50:53.955Z,18.00
2018-05-08T00:53:20.878Z,18.00
2018-05-08T00:55:47.067Z,18.00
2018-05-08T00:58:13.317Z,17.90
2018-05-08T01:00:39.509Z,17.90
2018-05-08T01:03:05.758Z,17.80
2018-05-08T01:05:31.945Z,17.80
2018-05-08T01:07:58.890Z,17.60
2018-05-08T01:10:25.803Z,17.50
2018-05-08T01:12:51.963Z,17.50
2018-05-08T01:15:18.882Z,17.40
2018-05-08T01:17:45.073Z,17.40
2018-05-08T01:20:11.327Z,17.30
2018-05-08T01:22:39.011Z,17.10
2018-05-08T01:25:05.197Z,17.20
2018-05-08T01:27:31.365Z,17.10
2018-05-08T01:29:58.307Z,17.00
2018-05-08T01:32:25.244Z,16.90
2018-05-08T01:34:51.427Z,16.90
2018-05-08T01:37:17.622Z,16.90
2018-05-08T01:39:43.831Z,16.80
2018-05-08T01:42:10.058Z,16.70
2018-05-08T01:44:36.960Z,16.60
2018-05-08T01:47:03.195Z,16.60
2018-05-08T01:49:29.387Z,16.50
2018-05-08T01:51:55.763Z,16.50
2018-05-08T01:54:21.956Z,16.40
2018-05-08T01:56:48.152Z,16.30
2018-05-08T01:59:14.326Z,16.30
2018-05-08T02:01:40.482Z,16.20
2018-05-08T02:04:06.669Z,16.20
2018-05-08T02:06:32.851Z,16.10
2018-05-08T02:08:59.815Z,16.10
2018-05-08T02:11:26.744Z,16.00
2018-05-08T02:13:53.663Z,16.00
2018-05-08T02:16:19.843Z,16.00
2018-05-08T02:18:46.079Z,15.90
2018-05-08T02:21:12.273Z,15.90
2018-05-08T02:23:39.198Z,15.80
2018-05-08T02:26:05.425Z,15.80
2018-05-08T02:28:33.111Z,15.70
2018-05-08T02:31:00.021Z,15.60
2018-05-08T02:33:26.198Z,15.60
2018-05-08T02:35:52.378Z,15.60
2018-05-08T02:38:18.555Z,15.50
2018-05-08T02:40:45.483Z,15.40
2018-05-08T02:43:12.388Z,15.40
2018-05-08T02:45:38.575Z,15.40
2018-05-08T02:48:04.763Z,15.40
2018-05-08T02:50:30.940Z,15.30
2018-05-08T02:52:57.133Z,15.30
2018-05-08T02:55:24.087Z,15.20
2018-05-08T02:57:50.267Z,15.20
2018-05-08T03:00:16.455Z,15.20
2018-05-08T03:02:42.658Z,15.10
2018-05-08T03:05:09.585Z,15.10
2018-05-08T03:07:35.764Z,15.00
2018-05-08T03:10:02.079Z,15.00
2018-05-08T03:12:28.272Z,15.00
2018-05-08T03:14:54.435Z,15.00
2018-05-08T03:17:20.627Z,14.90
2018-05-08T03:19:46.791Z,14.90
2018-05-08T03:22:13.097Z,14.90
2018-05-08T03:24:40.732Z,14.80
2018-05-08T03:27:06.932Z,14.80
2018-05-08T03:29:33.114Z,14.80
2018-05-08T03:31:59.312Z,14.80
2018-05-08T03:34:25.480Z,14.80
2018-05-08T03:36:52.388Z,14.70
2018-05-08T03:39:18.558Z,14.70
2018-05-08T03:41:44.732Z,14.70
2018-05-08T03:44:10.924Z,14.70
2018-05-08T03:46:37.102Z,14.70
2018-05-08T03:49:03.302Z,14.60
2018-05-08T03:51:29.483Z,14.60
2018-05-08T03:53:56.405Z,14.60
2018-05-08T03:56:22.567Z,14.60
2018-05-08T03:58:48.743Z,14.60
2018-05-08T04:01:27.435Z,14.50
2018-05-08T04:04:05.948Z,14.50
2018-05-08T04:09:31.844Z,14.50
2018-05-08T04:11:58.038Z,14.50
2018-05-08T04:14:24.228Z,14.50
2018-05-08T04:16:50.431Z,14.50
2018-05-08T04:19:17.345Z,14.40
2018-05-08T04:21:43.536Z,14.40
2018-05-08T04:24:09.723Z,14.50
2018-05-08T04:26:36.642Z,14.50
2018-05-08T04:29:02.827Z,14.40
2018-05-08T04:31:29.004Z,14.40
2018-05-08T04:33:56.714Z,14.40
2018-05-08T04:36:22.898Z,14.40
2018-05-08T04:38:49.079Z,14.40
2018-05-08T04:41:15.304Z,14.40
2018-05-08T04:43:41.480Z,14.40
2018-05-08T04:46:07.667Z,14.40
2018-05-08T04:48:33.867Z,14.50
2018-05-08T04:51:00.028Z,14.50
2018-05-08T04:53:26.252Z,14.50
2018-05-08T04:55:52.485Z,14.50
2018-05-08T04:58:18.622Z,14.50
2018-05-08T05:00:44.811Z,14.50
2018-05-08T05:03:11.005Z,14.60
2018-05-08T05:05:37.915Z,14.70
2018-05-08T05:08:04.109Z,14.60
2018-05-08T05:10:30.292Z,14.70
2018-05-08T05:12:57.231Z,14.90
2018-05-08T05:15:24.196Z,14.90
2018-05-08T05:17:50.380Z,14.90
2018-05-08T05:20:16.605Z,15.00
2018-05-08T05:22:42.807Z,15.10
2018-05-08T05:25:08.992Z,15.20
2018-05-08T05:27:35.919Z,15.40
2018-05-08T05:30:02.122Z,15.40
2018-05-08T05:32:28.342Z,15.50
2018-05-08T05:34:54.515Z,15.60
2018-05-08T05:37:20.704Z,15.70
2018-05-08T05:39:46.867Z,15.80
2018-05-08T05:42:13.587Z,15.90
2018-05-08T05:44:39.763Z,16.10
2018-05-08T05:47:05.996Z,16.40
2018-05-08T05:49:32.911Z,17.10
2018-05-08T05:51:59.092Z,17.10
2018-05-08T05:54:25.267Z,17.50
2018-05-08T05:56:52.191Z,18.40
2018-05-08T05:59:18.375Z,18.40
2018-05-08T06:01:44.563Z,18.80
2018-05-08T06:04:10.728Z,19.20
2018-05-08T06:06:36.919Z,19.70
2018-05-08T06:09:04.651Z,20.40
2018-05-08T06:11:30.827Z,20.40
2018-05-08T06:13:57.747Z,21.20
2018-05-08T06:16:23.935Z,21.20
2018-05-08T06:18:50.098Z,21.50
2018-05-08T06:21:16.284Z,21.80
2018-05-08T06:23:42.471Z,22.10
2018-05-08T06:26:09.393Z,22.70
2018-05-08T06:28:35.662Z,22.60
2018-05-08T06:31:01.764Z,22.90
2018-05-08T06:33:28.703Z,23.40
2018-05-08T06:35:54.888Z,23.40
2018-05-08T06:38:21.061Z,23.60
2018-05-08T06:40:47.987Z,24.00
2018-05-08T06:43:14.175Z,24.00
2018-05-08T06:45:40.367Z,24.20
2018-05-08T06:48:06.595Z,24.40
2018-05-08T06:50:32.783Z,24.50
2018-05-08T06:52:58.981Z,24.60
2018-05-08T06:55:25.159Z,24.70
2018-05-08T06:57:51.336Z,24.90
2018-05-08T07:00:17.514Z,24.90
2018-05-08T07:02:43.689Z,25.00
2018-05-08T07:05:09.871Z,25.00
2018-05-08T07:07:36.059Z,25.10
2018-05-08T07:10:02.253Z,25.20
2018-05-08T07:12:28.455Z,25.20
2018-05-08T07:14:54.653Z,25.20
2018-05-08T07:17:20.827Z,25.20
2018-05-08T07:19:47.747Z,25.20
2018-05-08T07:22:13.928Z,25.20
2018-05-08T07:24:40.096Z,25.20
2018-05-08T07:27:06.277Z,25.20
2018-05-08T07:29:32.457Z,25.10
2018-05-08T07:31:59.396Z,25.00
2018-05-08T07:34:25.563Z,25.00
2018-05-08T07:36:51.751Z,25.00
2018-05-08T07:39:17.929Z,25.00
2018-05-08T07:41:44.107Z,24.90
2018-05-08T07:44:10.320Z,24.90
2018-05-08T07:46:36.490Z,24.90
2018-05-08T07:49:02.706Z,24.90
2018-05-08T07:51:29.635Z,24.90
2018-05-08T07:53:55.808Z,24.90
2018-05-08T07:56:21.987Z,24.90
2018-05-08T07:58:48.167Z,24.90
2018-05-08T08:01:14.348Z,24.90
2018-05-08T08:03:41.322Z,25.00
2018-05-08T08:06:07.464Z,25.00
2018-05-08T08:08:33.654Z,25.00
2018-05-08T08:11:00.576Z,25.10
2018-05-08T08:13:26.803Z,25.10
2018-05-08T08:15:52.991Z,25.20
2018-05-08T08:18:19.169Z,25.30
2018-05-08T08:20:46.170Z,25.40
2018-05-08T08:23:12.422Z,25.40
2018-05-08T08:25:38.646Z,25.50
2018-05-08T08:28:04.842Z,25.60
2018-05-08T08:30:31.037Z,25.70
2018-05-08T08:32:57.999Z,25.80
2018-05-08T08:35:24.929Z,25.90
2018-05-08T08:37:51.107Z,25.90
2018-05-08T08:40:17.323Z,26.00
2018-05-08T08:42:43.531Z,26.00
2018-05-08T08:45:09.732Z,26.10
2018-05-08T08:47:36.010Z,26.20
2018-05-08T08:50:02.221Z,26.30
2018-05-08T08:52:28.489Z,26.30
2018-05-08T08:54:54.751Z,26.40
2018-05-08T08:57:20.956Z,26.50
2018-05-08T08:59:47.165Z,26.60
2018-05-08T09:02:13.351Z,26.60
2018-05-08T09:04:39.580Z,26.70
2018-05-08T09:07:06.517Z,26.90
2018-05-08T09:09:33.468Z,27.00
2018-05-08T09:12:00.436Z,27.00
2018-05-08T09:14:26.671Z,27.00
2018-05-08T09:16:52.866Z,27.10
2018-05-08T09:19:19.781Z,27.20
2018-05-08T09:21:45.997Z,27.20
2018-05-08T09:24:12.192Z,27.30
2018-05-08T09:26:38.399Z,27.30
2018-05-08T09:29:04.681Z,27.40
2018-05-08T09:31:30.912Z,27.50
2018-05-08T09:33:57.116Z,27.50
2018-05-08T09:36:23.293Z,27.60
2018-05-08T09:38:49.505Z,27.70
2018-05-08T09:41:15.708Z,27.80
2018-05-08T09:43:41.888Z,27.80
2018-05-08T09:46:08.075Z,27.90
2018-05-08T09:48:34.316Z,28.00
2018-05-08T09:51:00.561Z,28.10
2018-05-08T09:53:26.779Z,28.20
2018-05-08T09:55:52.967Z,28.30
2018-05-08T09:58:19.195Z,28.40
2018-05-08T10:00:45.396Z,28.50
2018-05-08T10:03:11.593Z,28.60
2018-05-08T10:05:37.766Z,28.70
2018-05-08T10:08:03.965Z,28.80
2018-05-08T10:10:30.902Z,28.90
2018-05-08T10:12:57.851Z,28.90
2018-05-08T10:15:24.092Z,28.90
2018-05-08T10:17:50.327Z,29.00
2018-05-08T10:20:16.533Z,29.00
2018-05-08T10:22:43.488Z,29.10
2018-05-08T10:25:10.424Z,29.10
2018-05-08T10:27:36.600Z,29.10
2018-05-08T10:30:02.810Z,29.20
2018-05-08T10:32:29.005Z,29.20
2018-05-08T10:34:55.932Z,29.20
2018-05-08T10:37:22.155Z,29.20
2018-05-08T10:39:48.367Z,29.20
2018-05-08T10:42:14.640Z,29.20
2018-05-08T10:44:40.831Z,29.30
2018-05-08T10:47:07.017Z,29.30
2018-05-08T10:49:33.237Z,29.30
2018-05-08T10:51:59.469Z,29.40
2018-05-08T10:54:25.655Z,29.40
2018-05-08T10:56:51.864Z,29.40
2018-05-08T10:59:18.066Z,29.50
2018-05-08T11:01:44.349Z,29.50
2018-05-08T11:04:10.486Z,29.60
2018-05-08T11:06:36.701Z,29.60
2018-05-08T11:09:02.941Z,29.60
2018-05-08T11:11:29.901Z,29.70
2018-05-08T11:13:56.084Z,29.70
2018-05-08T11:16:22.300Z,29.80
2018-05-08T11:18:48.511Z,29.80
2018-05-08T11:21:14.720Z,29.80
2018-05-08T11:23:40.924Z,29.90
2018-05-08T11:26:07.868Z,29.90
2018-05-08T11:28:34.084Z,29.90
2018-05-08T11:31:00.299Z,29.90
2018-05-08T11:33:26.521Z,29.90
2018-05-08T11:35:52.748Z,29.90
2018-05-08T11:38:18.981Z,30.00
2018-05-08T11:40:45.232Z,30.00
2018-05-08T11:43:12.201Z,30.10
2018-05-08T11:45:38.391Z,30.10
2018-05-08T11:48:04.621Z,30.10
2018-05-08T11:50:30.845Z,30.20
2018-05-08T11:52:57.038Z,30.20
2018-05-08T11:55:23.248Z,30.30
2018-05-08T11:57:49.515Z,30.30
2018-05-08T12:00:15.712Z,30.30
2018-05-08T12:02:41.968Z,30.40
2018-05-08T12:05:08.139Z,30.50
2018-05-08T12:07:34.354Z,30.50
2018-05-08T12:10:01.322Z,30.50
2018-05-08T12:12:27.512Z,30.60
2018-05-08T12:14:53.769Z,30.60
2018-05-08T12:17:19.923Z,30.70
2018-05-08T12:19:46.918Z,30.80
2018-05-08T12:22:13.112Z,30.80
2018-05-08T12:24:39.335Z,30.80
2018-05-08T12:27:05.523Z,30.90
2018-05-08T12:29:32.456Z,31.00
2018-05-08T12:31:58.719Z,31.00
2018-05-08T12:34:24.892Z,31.00
2018-05-08T12:36:51.077Z,31.10
2018-05-08T12:39:17.271Z,31.10
2018-05-08T12:41:44.207Z,31.20
2018-05-08T12:44:10.398Z,31.20
2018-05-08T12:46:36.595Z,31.20
2018-05-08T12:49:02.820Z,31.20
2018-05-08T12:51:28.992Z,31.30
2018-05-08T12:53:55.204Z,31.30
2018-05-08T12:56:21.399Z,31.20
2018-05-08T12:58:48.357Z,31.20
2018-05-08T13:01:14.559Z,31.20
2018-05-08T13:03:41.496Z,31.30
2018-05-08T13:06:08.442Z,31.30
2018-05-08T13:08:34.632Z,31.30
2018-05-08T13:11:00.900Z,31.30
2018-05-08T13:13:27.137Z,31.40
2018-05-08T13:15:54.079Z,31.40
2018-05-08T13:18:20.315Z,31.40
2018-05-08T13:20:47.247Z,31.40
2018-05-08T13:23:14.222Z,31.40
2018-05-08T13:25:40.433Z,31.30
2018-05-08T13:28:06.684Z,31.40
2018-05-08T13:30:32.905Z,31.40
2018-05-08T13:32:59.096Z,31.40
2018-05-08T13:35:25.305Z,31.40
2018-05-08T13:37:51.496Z,31.40
2018-05-08T13:40:17.705Z,31.40
2018-05-08T13:42:43.903Z,31.40
2018-05-08T13:45:10.093Z,31.40
2018-05-08T13:47:36.308Z,31.40
2018-05-08T13:50:02.612Z,31.40
2018-05-08T13:52:28.748Z,31.50
2018-05-08T13:54:54.950Z,31.50
2018-05-08T13:57:21.899Z,31.50
2018-05-08T13:59:48.833Z,31.60
2018-05-08T14:02:15.065Z,31.50
2018-05-08T14:04:41.254Z,31.60
2018-05-08T14:07:14.370Z,31.60
2018-05-08T14:09:40.567Z,31.70
2018-05-08T14:12:06.772Z,31.70
2018-05-08T14:14:32.951Z,31.70
2018-05-08T14:16:59.141Z,31.70
2018-05-08T14:19:25.352Z,31.80
2018-05-08T14:21:51.580Z,31.80
2018-05-08T14:24:17.791Z,31.90
2018-05-08T14:26:44.740Z,32.00
2018-05-08T14:29:11.681Z,32.00
2018-05-08T14:31:38.632Z,32.10
2018-05-08T14:34:04.816Z,32.10
2018-05-08T14:36:31.011Z,32.10
2018-05-08T14:38:57.191Z,32.20
2018-05-08T14:41:24.864Z,32.10
2018-05-08T14:43:51.790Z,32.20
2018-05-08T14:46:17.973Z,32.10
2018-05-08T14:48:44.165Z,32.20
2018-05-08T14:51:10.355Z,32.20
2018-05-08T14:53:36.544Z,32.10
2018-05-08T14:56:02.743Z,32.10
2018-05-08T14:58:29.688Z,32.10
2018-05-08T15:00:56.600Z,32.00
2018-05-08T15:03:22.799Z,32.00
2018-05-08T15:05:48.983Z,32.00
2018-05-08T15:08:15.157Z,32.00
2018-05-08T15:10:41.352Z,31.90
2018-05-08T15:13:07.557Z,31.90
2018-05-08T15:15:34.488Z,31.90
2018-05-08T15:18:00.687Z,31.90
2018-05-08T15:20:26.896Z,31.90
2018-05-08T15:22:53.068Z,31.90
2018-05-08T15:25:19.243Z,31.80
2018-05-08T15:27:45.414Z,31.80
2018-05-08T15:30:11.627Z,31.80
2018-05-08T15:32:37.804Z,31.80
2018-05-08T15:35:04.743Z,31.80
2018-05-08T15:37:37.950Z,31.80
2018-05-08T15:40:04.254Z,31.80
2018-05-08T15:42:30.435Z,31.80
2018-05-08T15:44:56.599Z,31.80
2018-05-08T15:47:22.872Z,31.80
2018-05-08T15:49:48.991Z,31.90
2018-05-08T15:52:15.931Z,31.90
2018-05-08T15:54:42.843Z,31.90
2018-05-08T15:57:09.101Z,31.80
2018-05-08T15:59:35.349Z,31.90
2018-05-08T16:02:01.551Z,31.90
2018-05-08T16:04:27.719Z,31.90
2018-05-08T16:06:53.895Z,31.90
2018-05-08T16:09:20.097Z,31.90
2018-05-08T16:11:46.284Z,31.90
2018-05-08T16:14:12.493Z,31.70
2018-05-08T16:16:39.423Z,31.80
2018-05-08T16:19:06.376Z,31.80
2018-05-08T16:21:32.547Z,31.80
2018-05-08T16:23:58.744Z,31.80
2018-05-08T16:26:24.981Z,31.70
2018-05-08T16:28:51.201Z,31.70
2018-05-08T16:31:18.139Z,31.70
2018-05-08T16:33:44.343Z,31.70
2018-05-08T16:36:10.543Z,31.60
2018-05-08T16:38:36.745Z,31.60
2018-05-08T16:41:02.947Z,31.60
2018-05-08T16:43:29.881Z,31.50
2018-05-08T16:45:56.079Z,31.50
2018-05-08T16:48:22.341Z,31.50
2018-05-08T16:50:48.532Z,31.50
2018-05-08T16:53:14.739Z,31.40
2018-05-08T16:55:40.907Z,31.40
2018-05-08T16:58:07.099Z,31.30
2018-05-08T17:00:33.309Z,31.30
2018-05-08T17:02:59.517Z,31.30
2018-05-08T17:05:26.449Z,31.20
2018-05-08T17:07:53.396Z,31.20
2018-05-08T17:10:20.345Z,31.10
2018-05-08T17:12:47.290Z,31.10
2018-05-08T17:15:13.459Z,31.10
2018-05-08T17:17:39.651Z,31.00
2018-05-08T17:20:06.600Z,31.00
2018-05-08T17:22:33.531Z,30.90
2018-05-08T17:25:00.477Z,30.90
2018-05-08T17:27:26.656Z,30.80
2018-05-08T17:29:52.863Z,30.80
2018-05-08T17:32:19.052Z,30.80
2018-05-08T17:34:45.228Z,30.70
2018-05-08T17:37:11.408Z,30.70
2018-05-08T17:39:37.590Z,30.60
2018-05-08T17:42:03.776Z,30.60
2018-05-08T17:44:29.952Z,30.50
2018-05-08T17:46:56.132Z,30.50
2018-05-08T17:49:22.292Z,30.40
2018-05-08T17:51:48.482Z,30.40
2018-05-08T17:54:14.677Z,30.30
2018-05-08T17:56:40.870Z,30.30
2018-05-08T17:59:07.066Z,30.30
2018-05-08T18:01:33.281Z,30.30
2018-05-08T18:03:59.572Z,30.30
2018-05-08T18:06:25.736Z,30.30
2018-05-08T18:08:52.005Z,30.30
2018-05-08T18:11:18.144Z,30.40
2018-05-08T18:13:44.330Z,30.40
2018-05-08T18:16:11.319Z,30.60
2018-05-08T18:18:37.519Z,30.50
2018-05-08T18:21:04.461Z,30.70
2018-05-08T18:23:30.689Z,30.70
2018-05-08T18:25:57.627Z,30.80
2018-05-08T18:28:24.536Z,30.80
2018-05-08T18:30:51.451Z,30.90
2018-05-08T18:33:18.448Z,30.90
2018-05-08T18:35:45.600Z,30.90
2018-05-08T18:38:12.527Z,30.80
2018-05-08T18:40:38.761Z,30.70
2018-05-08T18:43:05.716Z,30.60
2018-05-08T18:45:31.910Z,30.50
2018-05-08T18:47:58.096Z,30.40
2018-05-08T18:50:25.041Z,29.90
2018-05-08T18:52:51.284Z,29.90
2018-05-08T18:55:17.483Z,29.60
2018-05-08T18:57:43.699Z,29.30
2018-05-08T19:00:15.832Z,29.00
2018-05-08T19:02:42.017Z,28.80
2018-05-08T19:05:08.952Z,28.20
2018-05-08T19:07:35.888Z,28.00
2018-05-08T19:10:03.072Z,27.90
2018-05-08T19:12:29.281Z,27.70
2018-05-08T19:15:02.253Z,27.20
2018-05-08T19:17:28.442Z,27.20
2018-05-08T19:20:00.880Z,27.00
2018-05-08T19:22:27.795Z,26.50
2018-05-08T19:24:54.710Z,26.30
2018-05-08T19:27:20.909Z,26.20
2018-05-08T19:29:53.171Z,26.10
2018-05-08T19:32:19.340Z,25.80
2018-05-08T19:34:51.780Z,25.70
2018-05-08T19:37:24.192Z,25.50
2018-05-08T19:39:50.363Z,25.30
2018-05-08T19:42:17.299Z,25.00
2018-05-08T19:44:44.213Z,24.70
2018-05-08T19:47:10.392Z,24.70
2018-05-08T19:49:36.567Z,24.60
2018-05-08T19:52:02.781Z,24.50
2018-05-08T19:54:28.957Z,24.30
2018-05-08T19:56:55.897Z,24.10
2018-05-08T19:59:22.835Z,23.90
2018-05-08T20:01:49.751Z,23.80
2018-05-08T20:04:15.917Z,23.80
2018-05-08T20:06:42.116Z,23.70
2018-05-08T20:09:09.094Z,23.50
2018-05-08T20:11:35.263Z,23.40
2018-05-08T20:14:01.443Z,23.30
2018-05-08T20:16:28.367Z,23.10
2018-05-08T20:18:54.541Z,23.00
2018-05-08T20:21:20.728Z,23.00
2018-05-08T20:23:47.656Z,22.80
2018-05-08T20:26:13.824Z,22.70
2018-05-08T20:28:39.999Z,22.70
2018-05-08T20:31:06.209Z,22.50
2018-05-08T20:33:32.407Z,22.40
2018-05-08T20:35:58.710Z,22.30
2018-05-08T20:38:24.799Z,22.30
2018-05-08T20:40:50.955Z,22.20
2018-05-08T20:43:17.161Z,22.10
2018-05-08T20:45:43.337Z,22.00
2018-05-08T20:48:09.529Z,21.90
2018-05-08T20:50:35.763Z,21.80
2018-05-08T20:53:02.732Z,21.70
2018-05-08T20:55:28.925Z,21.70
2018-05-08T20:57:55.136Z,21.60
2018-05-08T21:00:21.336Z,21.50
2018-05-08T21:02:47.529Z,21.50
2018-05-08T21:05:13.740Z,21.40
2018-05-08T21:07:39.904Z,21.40
2018-05-08T21:10:06.112Z,21.30
2018-05-08T21:12:33.071Z,21.10
2018-05-08T21:14:59.251Z,21.10
2018-05-08T21:17:25.472Z,21.10
2018-05-08T21:19:51.716Z,21.00
2018-05-08T21:22:17.959Z,20.90
2018-05-08T21:24:44.148Z,20.90
2018-05-08T21:27:10.365Z,20.80
2018-05-08T21:29:42.721Z,20.80
2018-05-08T21:32:08.895Z,20.70
2018-05-08T21:34:35.830Z,20.50
2018-05-08T21:37:02.016Z,20.50
2018-05-08T21:39:28.211Z,20.50
2018-05-08T21:41:55.121Z,20.40
2018-05-08T21:44:21.318Z,20.40
2018-05-08T21:46:47.499Z,20.30
2018-05-08T21:49:13.688Z,20.30
2018-05-08T21:51:39.860Z,20.20
2018-05-08T21:54:06.852Z,20.10
2018-05-08T21:56:33.051Z,20.10
2018-05-08T21:58:59.980Z,20.00
2018-05-08T22:01:26.166Z,20.00
2018-05-08T22:03:52.379Z,19.80
2018-05-08T22:06:18.565Z,19.90
2018-05-08T22:08:44.735Z,19.90
2018-05-08T22:11:10.981Z,19.80
2018-05-08T22:13:37.205Z,19.80
2018-05-08T22:16:03.387Z,19.70
2018-05-08T22:18:29.583Z,19.70
2018-05-08T22:20:55.775Z,19.60
2018-05-08T22:23:21.983Z,19.60
2018-05-08T22:25:48.179Z,19.50
2018-05-08T22:28:14.359Z,19.50
2018-05-08T22:30:40.536Z,19.40
2018-05-08T22:33:06.724Z,19.40
2018-05-08T22:35:32.938Z,19.30
2018-05-08T22:37:59.156Z,19.30
2018-05-08T22:40:26.102Z,19.20
2018-05-08T22:42:52.295Z,19.20
2018-05-08T22:45:18.491Z,19.10
2018-05-08T22:47:44.684Z,19.10
2018-05-08T22:50:11.621Z,19.00
2018-05-08T22:52:38.545Z,18.90
2018-05-08T22:55:04.751Z,18.90
2018-05-08T22:57:30.944Z,18.90
2018-05-08T22:59:57.140Z,18.90
2018-05-08T23:02:23.333Z,18.80
2018-05-08T23:04:49.515Z,18.80
2018-05-08T23:07:15.715Z,18.80
2018-05-08T23:09:42.677Z,18.70
2018-05-08T23:12:08.892Z,18.70
2018-05-08T23:14:35.063Z,18.70
2018-05-08T23:17:01.270Z,18.60
2018-05-08T23:19:29.244Z,18.70
2018-05-08T23:21:55.440Z,18.60
2018-05-08T23:24:21.611Z,18.50
2018-05-08T23:26:47.806Z,18.50
2018-05-08T23:29:14.739Z,18.40
2018-05-08T23:31:40.920Z,18.40
2018-05-08T23:34:07.095Z,18.40
2018-05-08T23:36:34.030Z,18.40
2018-05-08T23:39:00.259Z,18.30
2018-05-08T23:41:26.444Z,18.40
2018-05-08T23:43:52.618Z,18.30
2018-05-08T23:46:19.539Z,18.30
2018-05-08T23:48:45.707Z,18.30
2018-05-08T23:51:11.896Z,18.40
2018-05-08T23:53:38.069Z,18.30
2018-05-08T23:56:04.258Z,18.40
2018-05-08T23:58:31.176Z,18.40
